Time;durP1;ratioP1;P1;durP2;ratioP2;P2;SDS_P1;SDS_P2;PMS_P1;PMS_P2;Temp;Humidity;BMP_temperature;BMP_pressure;BME280_temperature;BME280_humidity;BME280_pressure;Samples;Min_cycle;Max_cycle;Signal;HPM_P1;HPM_P2
2022/03/05 00:02:13;;;;;;;27.07;16.77;;;;;;;3.99;56.02;101922.50;5271722;28;20028;-71
2022/03/05 00:04:45;;;;;;;30.40;18.60;;;;;;;3.85;56.57;101926.16;5270986;28;20124;-71
2022/03/05 00:07:16;;;;;;;31.40;19.00;;;;;;;3.76;56.67;101923.69;5272336;28;20638;-71
2022/03/05 00:09:47;;;;;;;29.97;17.37;;;;;;;3.81;56.66;101928.78;5269745;28;20031;-71
2022/03/05 00:12:19;;;;;;;30.30;17.17;;;;;;;3.72;56.92;101925.44;5270103;28;20558;-71
2022/03/05 00:14:50;;;;;;;33.50;18.07;;;;;;;3.62;57.53;101931.63;5277515;28;20119;-71
2022/03/05 00:17:22;;;;;;;31.70;19.40;;;;;;;3.64;57.76;101932.47;5280404;28;20028;-71
2022/03/05 00:19:54;;;;;;;29.07;17.83;;;;;;;3.50;58.01;101933.53;5276972;28;20036;-70
2022/03/05 00:22:26;;;;;;;33.13;18.73;;;;;;;3.63;57.96;101934.19;5275375;28;20542;-70
2022/03/05 00:24:58;;;;;;;34.37;20.27;;;;;;;3.58;57.93;101940.34;5273511;28;20025;-71
2022/03/05 00:27:30;;;;;;;36.10;18.87;;;;;;;3.47;58.33;101943.06;5273406;28;20027;-71
2022/03/05 00:30:01;;;;;;;33.03;20.27;;;;;;;3.47;57.64;101919.75;5281215;28;20039;-70
2022/03/05 00:32:33;;;;;;;27.07;18.43;;;;;;;3.65;57.43;101935.94;5284629;28;20031;-71
2022/03/05 00:35:05;;;;;;;33.20;20.60;;;;;;;3.62;57.50;101937.69;5276162;28;20034;-71
2022/03/05 00:37:37;;;;;;;31.53;19.03;;;;;;;3.51;57.61;101942.13;5278602;28;20752;-71
2022/03/05 00:40:09;;;;;;;34.47;20.87;;;;;;;3.63;57.90;101939.38;5280100;28;20135;-71
2022/03/05 00:42:41;;;;;;;30.47;18.90;;;;;;;3.54;57.72;101933.47;5273241;28;20084;-71
2022/03/05 00:45:12;;;;;;;34.30;19.83;;;;;;;3.63;57.66;101934.19;5272162;28;20070;-70
2022/03/05 00:47:43;;;;;;;32.00;20.20;;;;;;;3.46;58.29;101936.16;5272137;28;20024;-71
2022/03/05 00:50:15;;;;;;;35.60;21.57;;;;;;;3.34;58.35;101927.66;5270729;28;20032;-71
2022/03/05 00:52:46;;;;;;;33.50;21.17;;;;;;;3.34;58.66;101927.66;5270669;28;20568;-71
2022/03/05 00:55:17;;;;;;;37.20;21.03;;;;;;;3.33;58.44;101927.69;5271736;28;20135;-71
2022/03/05 00:57:48;;;;;;;34.07;20.73;;;;;;;3.35;58.46;101934.53;5270923;28;20029;-71
2022/03/05 01:00:20;;;;;;;36.07;21.73;;;;;;;3.26;58.72;101930.31;5276517;28;20025;-71
2022/03/05 01:02:52;;;;;;;38.37;22.40;;;;;;;3.17;59.16;101932.16;5273465;28;20036;-71
2022/03/05 01:05:23;;;;;;;35.40;21.70;;;;;;;3.13;59.75;101929.63;5269710;28;20067;-71
2022/03/05 01:07:55;;;;;;;38.37;22.70;;;;;;;3.08;59.57;101935.72;5270822;28;20028;-71
2022/03/05 01:10:26;;;;;;;40.97;23.47;;;;;;;3.03;59.60;101935.78;5271090;28;20468;-71
2022/03/05 01:12:57;;;;;;;39.03;22.07;;;;;;;3.17;59.31;101933.03;5270559;28;20531;-71
2022/03/05 01:15:28;;;;;;;34.07;21.97;;;;;;;3.17;58.93;101930.44;5271176;28;20498;-71
2022/03/05 01:18:00;;;;;;;41.13;22.77;;;;;;;3.17;59.47;101929.56;5271267;28;20036;-71
2022/03/05 01:20:31;;;;;;;39.43;23.67;;;;;;;3.02;59.81;101926.28;5270637;28;20169;-71
2022/03/05 01:23:02;;;;;;;37.27;22.93;;;;;;;3.06;59.27;101922.78;5257273;28;20483;-71
2022/03/05 01:25:34;;;;;;;36.63;22.10;;;;;;;3.13;59.24;101933.94;5270318;28;20038;-71
2022/03/05 01:28:05;;;;;;;34.07;22.40;;;;;;;3.04;59.58;101937.47;5268619;28;20025;-71
2022/03/05 01:30:37;;;;;;;34.67;22.30;;;;;;;2.83;59.91;101931.63;5271148;28;20028;-71
2022/03/05 01:33:08;;;;;;;34.93;21.20;;;;;;;2.88;59.92;101937.63;5270754;28;20029;-71
2022/03/05 01:35:39;;;;;;;38.00;23.53;;;;;;;2.75;60.21;101926.56;5271192;28;20111;-71
2022/03/05 01:38:11;;;;;;;35.63;22.27;;;;;;;2.93;59.85;101926.38;5269567;28;20029;-71
2022/03/05 01:40:43;;;;;;;40.27;23.57;;;;;;;2.80;60.49;101929.09;5271777;28;20024;-71
2022/03/05 01:43:14;;;;;;;40.43;24.03;;;;;;;2.68;60.52;101926.63;5272419;28;20028;-71
2022/03/05 01:45:46;;;;;;;35.73;22.67;;;;;;;2.76;60.26;101929.97;5274000;28;20670;-71
2022/03/05 01:48:17;;;;;;;42.30;25.20;;;;;;;2.76;60.36;101927.38;5275198;28;20033;-71
2022/03/05 01:50:48;;;;;;;37.20;24.63;;;;;;;2.60;61.06;101927.53;5275814;28;20032;-71
2022/03/05 01:53:19;;;;;;;38.53;24.30;;;;;;;2.85;60.01;101923.84;5276202;28;20029;-71
2022/03/05 01:55:51;;;;;;;44.93;25.03;;;;;;;2.79;60.40;101919.63;5279223;28;20111;-71
2022/03/05 01:58:23;;;;;;;40.87;25.27;;;;;;;2.52;60.99;101927.63;5272389;28;20028;-71
2022/03/05 02:00:54;;;;;;;43.27;24.87;;;;;;;2.52;61.38;101916.41;5274451;28;20024;-71
2022/03/05 02:03:25;;;;;;;40.17;24.77;;;;;;;2.50;61.30;101923.31;5273982;28;20259;-71
2022/03/05 02:05:57;;;;;;;42.20;24.73;;;;;;;2.48;61.13;101925.06;5274520;28;20575;-71
2022/03/05 02:08:29;;;;;;;41.13;24.47;;;;;;;2.66;60.58;101924.03;5274086;28;20445;-71
2022/03/05 02:11:00;;;;;;;38.77;25.63;;;;;;;2.54;61.23;101928.47;5274116;22;20059;-71
2022/03/05 02:13:31;;;;;;;41.87;24.47;;;;;;;2.46;61.22;101926.81;5271741;28;20794;-71
2022/03/05 02:16:03;;;;;;;40.27;24.50;;;;;;;2.70;60.59;101930.91;5262869;28;20548;-71
2022/03/05 02:18:34;;;;;;;41.97;26.23;;;;;;;2.39;61.20;101926.84;5254587;28;20086;-71
2022/03/05 02:21:06;;;;;;;44.37;26.10;;;;;;;2.44;60.95;101924.25;5254275;28;20035;-71
2022/03/05 02:23:37;;;;;;;43.93;27.97;;;;;;;2.30;62.07;101922.59;5257520;28;20029;-71
2022/03/05 02:26:09;;;;;;;39.57;24.40;;;;;;;2.30;61.77;101919.16;5264145;28;20044;-71
2022/03/05 02:28:41;;;;;;;44.43;26.73;;;;;;;2.28;61.77;101918.31;5257330;28;20390;-71
2022/03/05 02:31:12;;;;;;;46.00;27.40;;;;;;;2.18;61.78;101910.63;5266888;28;20325;-71
2022/03/05 02:33:44;;;;;;;42.13;26.17;;;;;;;2.16;62.05;101909.78;5273064;28;20090;-71
2022/03/05 02:36:15;;;;;;;45.73;27.50;;;;;;;2.05;62.66;101912.44;5259490;28;20116;-71
2022/03/05 02:38:46;;;;;;;42.57;26.50;;;;;;;2.07;62.22;101901.22;5260730;28;20241;-71
2022/03/05 02:41:18;;;;;;;45.20;25.90;;;;;;;1.99;62.56;101889.22;5269971;28;20076;-71
2022/03/05 02:43:49;;;;;;;44.50;26.40;;;;;;;1.90;62.88;101897.03;5257836;28;20032;-71
2022/03/05 02:46:25;;;;;;;45.90;26.43;;;;;;;1.87;63.40;101904.81;5261200;28;20870;-71
2022/03/05 02:48:56;;;;;;;44.93;28.10;;;;;;;1.81;63.67;101909.16;5274654;28;20692;-71
2022/03/05 02:51:28;;;;;;;44.57;27.73;;;;;;;1.91;63.79;101915.13;5252819;28;20287;-71
2022/03/05 02:53:59;;;;;;;44.63;26.80;;;;;;;1.84;63.58;101907.41;5252693;28;20033;-71
2022/03/05 02:56:31;;;;;;;43.53;26.77;;;;;;;1.93;63.67;101909.94;5262979;28;20043;-71
2022/03/05 02:59:02;;;;;;;46.03;28.67;;;;;;;2.33;62.67;101910.53;5265571;28;20044;-71
2022/03/05 03:01:34;;;;;;;45.07;26.30;;;;;;;2.28;61.90;101913.16;5257863;28;20031;-71
2022/03/05 03:04:05;;;;;;;40.03;26.47;;;;;;;2.40;61.22;101914.78;5265304;28;20029;-71
2022/03/05 03:06:36;;;;;;;43.87;26.70;;;;;;;2.36;60.94;101908.78;5274283;28;20040;-71
2022/03/05 03:09:07;;;;;;;47.27;28.40;;;;;;;2.11;62.20;101911.53;5268072;28;20032;-71
2022/03/05 03:11:39;;;;;;;43.77;27.27;;;;;;;2.02;62.80;101924.53;5253396;28;20057;-71
2022/03/05 03:14:10;;;;;;;42.87;26.70;;;;;;;1.77;62.81;101873.00;5267134;28;20032;-71
2022/03/05 03:16:41;;;;;;;44.70;27.10;;;;;;;2.05;62.57;101916.75;5260143;28;20037;-71
2022/03/05 03:19:13;;;;;;;43.33;25.97;;;;;;;2.01;62.68;101909.88;5261638;28;20028;-71
2022/03/05 03:21:44;;;;;;;41.33;27.07;;;;;;;1.96;62.92;101903.88;5272916;28;20043;-71
2022/03/05 03:24:15;;;;;;;48.17;27.77;;;;;;;2.01;62.22;101902.13;5269212;28;20028;-71
2022/03/05 03:26:46;;;;;;;47.60;29.13;;;;;;;1.61;62.38;101861.91;5266569;28;20020;-71
2022/03/05 03:29:18;;;;;;;38.93;25.17;;;;;;;2.06;62.61;101902.94;5251718;28;20051;-71
2022/03/05 03:31:49;;;;;;;44.13;27.60;;;;;;;2.13;61.78;101904.63;5264601;28;20025;-71
2022/03/05 03:34:21;;;;;;;44.23;28.03;;;;;;;2.00;62.46;101909.03;5273829;28;20429;-71
2022/03/05 03:36:52;;;;;;;45.30;27.43;;;;;;;1.87;62.95;101889.31;5259732;28;20134;-71
2022/03/05 03:39:23;;;;;;;45.90;27.07;;;;;;;1.81;62.87;101901.41;5252801;28;20017;-71
2022/03/05 03:41:54;;;;;;;47.23;27.53;;;;;;;2.05;62.41;101896.09;5266521;28;20032;-71
2022/03/05 03:44:26;;;;;;;42.27;27.27;;;;;;;1.75;62.75;101893.69;5253814;28;20032;-71
2022/03/05 03:46:57;;;;;;;44.63;27.10;;;;;;;2.00;62.67;101900.41;5266729;28;20028;-71
2022/03/05 03:49:28;;;;;;;48.57;28.20;;;;;;;1.74;63.00;101896.28;5253822;28;20025;-71
2022/03/05 03:51:59;;;;;;;43.50;26.57;;;;;;;1.73;63.00;101910.06;5252027;28;20094;-71
2022/03/05 03:54:31;;;;;;;42.93;26.83;;;;;;;1.64;63.40;101908.38;5252592;28;20124;-71
2022/03/05 03:57:02;;;;;;;44.50;26.23;;;;;;;1.66;63.20;101910.09;5252114;28;20847;-71
2022/03/05 03:59:34;;;;;;;47.23;27.17;;;;;;;1.72;63.57;101919.53;5253774;28;20037;-71
2022/03/05 04:02:06;;;;;;;48.73;27.90;;;;;;;1.73;63.54;101905.75;5262692;28;20074;-71
2022/03/05 04:04:38;;;;;;;46.93;27.57;;;;;;;1.37;63.47;101882.69;5268596;28;20029;-71
2022/03/05 04:09:59;;;;;;;47.33;27.77;;;;;;;1.46;63.70;101899.84;5276171;28;20122;-71
2022/03/05 04:12:31;;;;;;;52.43;29.33;;;;;;;1.46;63.48;101897.28;5258540;28;20362;-71
2022/03/05 04:15:04;;;;;;;42.23;27.07;;;;;;;1.42;64.41;101898.16;5269253;28;20099;-71
2022/03/05 04:17:37;;;;;;;47.17;29.37;;;;;;;1.54;63.81;101894.66;5272519;28;20475;-71
2022/03/05 04:20:08;;;;;;;52.00;29.77;;;;;;;1.63;63.50;101902.34;5271455;28;20623;-71
2022/03/05 04:22:40;;;;;;;46.33;27.97;;;;;;;1.64;63.17;101904.06;5273678;28;20279;-71
2022/03/05 04:25:12;;;;;;;50.53;28.40;;;;;;;1.75;63.23;101913.47;5265516;28;20028;-71
2022/03/05 04:27:43;;;;;;;45.90;28.20;;;;;;;1.48;63.56;101905.88;5254677;28;20028;-71
2022/03/05 04:30:14;;;;;;;48.90;29.20;;;;;;;1.36;64.00;101911.97;5269825;28;20639;-71
2022/03/05 04:32:46;;;;;;;50.80;29.37;;;;;;;1.31;64.62;101904.22;5256596;28;20044;-71
2022/03/05 04:35:17;;;;;;;45.03;25.83;;;;;;;1.23;64.20;101908.53;5251352;28;20495;-71
2022/03/05 04:37:51;;;;;;;47.90;27.97;;;;;;;1.16;65.37;101915.44;5251970;28;20021;-71
2022/03/05 04:40:22;;;;;;;50.47;28.97;;;;;;;1.04;65.41;101916.34;5263606;28;20025;-71
2022/03/05 04:42:54;;;;;;;53.30;28.57;;;;;;;1.18;65.03;101918.03;5249253;28;20294;-71
2022/03/05 04:45:26;;;;;;;45.30;27.77;;;;;;;1.23;65.18;101920.59;5270249;28;20020;-71
2022/03/05 04:47:57;;;;;;;47.60;27.63;;;;;;;1.27;65.41;101924.88;5271883;28;20039;-71
2022/03/05 04:50:29;;;;;;;47.00;28.20;;;;;;;1.39;64.25;101918.81;5261096;28;20711;-71
2022/03/05 04:53:00;;;;;;;46.97;27.97;;;;;;;1.28;64.81;101924.00;5271204;28;20020;-71
2022/03/05 04:55:31;;;;;;;44.13;26.70;;;;;;;1.17;64.67;101921.47;5270511;28;20501;-71
2022/03/05 04:58:02;;;;;;;51.23;27.40;;;;;;;1.06;65.39;101924.09;5250186;28;20048;-71
2022/03/05 05:00:34;;;;;;;47.23;29.93;;;;;;;1.03;65.51;101930.09;5251150;28;20025;-71
2022/03/05 05:03:05;;;;;;;53.90;28.93;;;;;;;1.00;65.77;101930.09;5248925;28;20482;-71
2022/03/05 05:05:36;;;;;;;50.27;27.40;;;;;;;1.12;65.15;101929.22;5244398;28;20025;-71
2022/03/05 05:08:07;;;;;;;52.33;29.50;;;;;;;1.04;65.37;101934.41;5235412;28;20018;-71
2022/03/05 05:10:39;;;;;;;45.53;27.67;;;;;;;0.96;65.41;101924.09;5240852;28;20502;-71
2022/03/05 05:13:10;;;;;;;50.40;28.63;;;;;;;0.80;65.81;101928.41;5248502;28;20029;-71
2022/03/05 05:15:41;;;;;;;46.00;28.57;;;;;;;1.04;65.58;101924.09;5258173;28;20020;-71
2022/03/05 05:18:13;;;;;;;54.57;31.70;;;;;;;0.86;65.77;101919.81;5271376;28;20150;-71
2022/03/05 05:20:44;;;;;;;53.40;30.43;;;;;;;0.85;65.98;101925.84;5264497;28;20021;-71
2022/03/05 05:23:15;;;;;;;49.23;28.10;;;;;;;0.80;65.84;101932.72;5271556;28;20098;-71
2022/03/05 05:25:47;;;;;;;50.40;31.17;;;;;;;0.79;66.14;101928.41;5265725;28;20025;-70
2022/03/05 05:28:18;;;;;;;48.20;29.53;;;;;;;0.74;66.38;101932.72;5238671;28;20123;-71
2022/03/05 05:30:49;;;;;;;48.17;28.80;;;;;;;0.69;66.65;101931.03;5243389;28;20600;-71
2022/03/05 05:33:21;;;;;;;47.93;27.33;;;;;;;0.64;66.68;101932.75;5255283;28;20624;-71
2022/03/05 05:35:52;;;;;;;50.43;28.40;;;;;;;0.67;66.97;101942.19;5246303;28;20072;-71
2022/03/05 05:38:23;;;;;;;47.63;28.83;;;;;;;0.75;66.66;101952.50;5260689;28;20044;-72
2022/03/05 05:40:54;;;;;;;48.77;28.67;;;;;;;0.86;66.34;101952.47;5250227;28;20034;-72
2022/03/05 05:43:26;;;;;;;51.57;28.03;;;;;;;0.65;66.89;101947.34;5237335;28;20114;-72
2022/03/05 05:45:57;;;;;;;44.30;27.07;;;;;;;0.64;66.50;101948.22;5271300;28;20068;-72
2022/03/05 05:48:28;;;;;;;51.77;29.63;;;;;;;0.57;66.72;101941.34;5271163;28;20059;-72
2022/03/05 05:50:59;;;;;;;54.63;30.40;;;;;;;0.47;67.13;101951.63;5269953;28;20036;-78
2022/03/05 05:53:31;;;;;;;49.60;30.37;;;;;;;0.43;67.14;101951.63;5252085;28;20086;-78
2022/03/05 05:56:02;;;;;;;49.97;29.07;;;;;;;0.48;67.66;101953.38;5267755;28;20075;-78
2022/03/05 05:58:33;;;;;;;47.93;27.33;;;;;;;0.41;67.63;101959.38;5253784;28;20016;-76
2022/03/05 06:01:05;;;;;;;49.77;29.70;;;;;;;0.40;68.01;101956.78;5271541;28;20035;-76
2022/03/05 06:03:36;;;;;;;50.07;28.60;;;;;;;0.36;67.81;101953.34;5261928;28;20733;-78
2022/03/05 06:06:07;;;;;;;50.67;28.53;;;;;;;0.38;67.94;101951.66;5239395;28;20032;-80
2022/03/05 06:08:39;;;;;;;48.37;28.37;;;;;;;0.50;67.83;101955.94;5242812;28;20017;-72
2022/03/05 06:11:10;;;;;;;50.77;29.33;;;;;;;0.49;68.27;101956.78;5256558;28;20080;-72
2022/03/05 06:13:42;;;;;;;52.00;27.90;;;;;;;0.55;68.02;101961.09;5270352;28;20024;-72
2022/03/05 06:16:13;;;;;;;49.63;27.63;;;;;;;0.41;67.58;101956.78;5269589;28;20029;-73
2022/03/05 06:18:45;;;;;;;50.37;29.47;;;;;;;0.47;67.65;101950.78;5250961;28;20028;-73
2022/03/05 06:21:16;;;;;;;51.53;30.13;;;;;;;0.50;67.24;101952.50;5248941;28;20041;-73
2022/03/05 06:23:47;;;;;;;51.97;29.33;;;;;;;0.45;67.75;101957.66;5250793;28;20074;-72
2022/03/05 06:26:19;;;;;;;48.63;27.77;;;;;;;0.69;66.79;101953.34;5252370;28;20029;-72
2022/03/05 06:28:50;;;;;;;49.87;28.13;;;;;;;0.62;66.71;101959.38;5271115;28;20383;-72
2022/03/05 06:31:21;;;;;;;47.80;29.27;;;;;;;0.46;66.98;101957.66;5274529;28;20028;-72
2022/03/05 06:33:52;;;;;;;52.83;28.80;;;;;;;0.45;66.99;101955.09;5255956;28;20032;-72
2022/03/05 06:36:24;;;;;;;53.07;28.37;;;;;;;0.35;67.78;101952.47;5266672;28;20056;-72
2022/03/05 06:38:56;;;;;;;57.33;30.30;;;;;;;0.36;68.09;101966.25;5256616;28;20029;-73
2022/03/05 06:41:27;;;;;;;48.03;27.67;;;;;;;0.34;68.21;101961.09;5267813;28;20028;-72
2022/03/05 06:43:58;;;;;;;52.60;29.50;;;;;;;0.53;68.18;101975.69;5258294;28;20033;-72
2022/03/05 06:46:29;;;;;;;53.17;30.80;;;;;;;0.51;68.14;101969.69;5269829;28;20064;-72
2022/03/05 06:49:01;;;;;;;54.30;27.97;;;;;;;0.50;68.27;101970.53;5273477;28;20033;-72
2022/03/05 06:51:32;;;;;;;52.73;28.67;;;;;;;0.40;68.25;101965.38;5258637;28;20069;-72
2022/03/05 06:54:03;;;;;;;52.53;29.07;;;;;;;0.46;68.17;101975.69;5254778;28;20091;-72
2022/03/05 06:56:35;;;;;;;54.63;28.83;;;;;;;0.54;67.79;101969.69;5257397;28;20119;-72
2022/03/05 06:59:06;;;;;;;56.33;28.47;;;;;;;0.47;68.34;101977.41;5274249;28;20028;-72
2022/03/05 07:01:37;;;;;;;52.40;30.33;;;;;;;0.60;68.60;101977.41;5272226;28;20032;-72
2022/03/05 07:04:09;;;;;;;52.40;31.40;;;;;;;0.63;68.39;101982.56;5261002;28;20033;-72
2022/03/05 07:06:40;;;;;;;53.47;29.73;;;;;;;0.55;68.11;101976.56;5254619;28;20029;-72
2022/03/05 07:09:11;;;;;;;48.27;28.47;;;;;;;0.61;68.43;101974.00;5253026;28;20108;-72
2022/03/05 07:11:43;;;;;;;49.73;28.63;;;;;;;0.67;68.12;101992.03;5265232;28;20086;-72
2022/03/05 07:14:14;;;;;;;55.20;30.53;;;;;;;0.74;67.73;101989.44;5251592;28;20029;-72
2022/03/05 07:16:45;;;;;;;53.07;28.03;;;;;;;0.80;67.87;101994.63;5253344;28;20483;-72
2022/03/05 07:19:16;;;;;;;53.83;27.90;;;;;;;0.75;68.54;101996.34;5252698;28;20361;-72
2022/03/05 07:21:48;;;;;;;55.63;29.47;;;;;;;0.76;68.21;101993.75;5263129;28;20036;-72
2022/03/05 07:24:19;;;;;;;61.20;30.53;;;;;;;0.83;68.28;101995.50;5263994;28;20032;-72
2022/03/05 07:26:50;;;;;;;54.33;27.90;;;;;;;0.89;68.40;102002.34;5264080;28;20025;-71
2022/03/05 07:29:22;;;;;;;50.60;30.07;;;;;;;0.95;68.05;102009.22;5266454;28;20072;-71
2022/03/05 07:31:53;;;;;;;53.70;28.40;;;;;;;0.94;68.67;102002.38;5243808;28;20029;-72
2022/03/05 07:34:26;;;;;;;52.83;29.03;;;;;;;1.05;68.74;102000.63;5271893;28;20025;-72
2022/03/05 07:36:57;;;;;;;55.90;28.13;;;;;;;1.08;67.86;101998.03;5242267;28;20030;-72
2022/03/05 07:39:29;;;;;;;55.23;28.97;;;;;;;1.13;68.38;101997.19;5231284;28;20281;-72
2022/03/05 07:42:00;;;;;;;56.90;28.00;;;;;;;1.22;67.96;102001.47;5237708;28;20022;-72
2022/03/05 07:44:31;;;;;;;52.60;28.77;;;;;;;1.23;68.69;102006.63;5243025;28;20075;-72
2022/03/05 07:47:04;;;;;;;52.10;28.60;;;;;;;1.37;68.33;101996.28;5250930;28;20032;-72
2022/03/05 07:49:35;;;;;;;59.23;31.87;;;;;;;1.38;68.55;101990.22;5252740;28;20032;-72
2022/03/05 07:52:06;;;;;;;54.60;29.93;;;;;;;1.78;67.10;101985.81;5253706;28;20699;-72
2022/03/05 07:54:38;;;;;;;54.57;30.10;;;;;;;2.22;66.11;101986.44;5255781;28;20063;-72
2022/03/05 07:57:09;;;;;;;53.43;29.43;;;;;;;2.73;64.63;101994.69;5251947;28;20554;-72
2022/03/05 07:59:40;;;;;;;48.13;28.97;;;;;;;3.05;63.49;101998.75;5252373;28;20029;-71
2022/03/05 08:02:15;;;;;;;48.87;29.77;;;;;;;3.47;62.20;102007.81;5266528;28;20025;-72
2022/03/05 08:04:47;;;;;;;53.83;29.02;;;;;;;3.66;61.36;101999.81;5263608;28;20072;-71
2022/03/05 08:07:19;;;;;;;53.20;29.00;;;;;;;3.55;60.34;102006.00;5239782;28;20044;-72
2022/03/05 08:09:50;;;;;;;49.60;28.67;;;;;;;3.94;59.85;102025.41;5249934;28;20025;-71
2022/03/05 08:12:22;;;;;;;61.00;30.20;;;;;;;3.95;58.39;102021.91;5243569;28;20044;-71
2022/03/05 08:14:53;;;;;;;49.23;29.03;;;;;;;4.23;57.96;102018.97;5246164;28;20029;-72
2022/03/05 08:17:25;;;;;;;53.00;27.40;;;;;;;4.51;57.76;102017.69;5258757;28;20035;-72
2022/03/05 08:19:56;;;;;;;48.13;27.13;;;;;;;4.78;57.21;102010.38;5250346;28;20031;-72
2022/03/05 08:22:27;;;;;;;55.83;28.20;;;;;;;5.16;54.79;102029.63;5249369;28;20463;-70
2022/03/05 08:24:58;;;;;;;51.43;29.20;;;;;;;5.52;54.19;102021.16;5252716;28;20067;-72
2022/03/05 08:27:30;;;;;;;47.07;26.67;;;;;;;6.07;52.98;102021.84;5252376;28;20052;-72
2022/03/05 08:30:02;;;;;;;46.23;28.43;;;;;;;6.68;50.69;102020.44;5252732;28;20047;-72
2022/03/05 08:32:33;;;;;;;46.43;26.03;;;;;;;7.16;49.45;102032.25;5257489;28;20051;-72
2022/03/05 08:35:07;;;;;;;51.87;25.77;;;;;;;8.16;48.05;102021.66;5257672;28;20404;-77
2022/03/05 08:37:40;;;;;;;46.30;27.10;;;;;;;8.82;46.36;102024.84;5243863;28;20495;-76
2022/03/05 08:40:13;;;;;;;48.70;27.07;;;;;;;9.28;44.62;102022.44;5243249;28;20154;-75
2022/03/05 08:42:45;;;;;;;38.87;25.17;;;;;;;9.86;42.83;102019.47;5251860;28;20028;-75
2022/03/05 08:45:16;;;;;;;43.33;26.20;;;;;;;10.02;42.17;102014.50;5269797;28;20105;-75
2022/03/05 08:47:48;;;;;;;43.63;27.80;;;;;;;11.44;40.54;102021.81;5262702;28;20957;-75
2022/03/05 08:50:19;;;;;;;45.27;28.10;;;;;;;11.03;39.36;102024.50;5242617;28;20022;-76
2022/03/05 08:52:51;;;;;;;44.47;27.17;;;;;;;12.32;38.56;102016.06;5264059;28;20025;-73
2022/03/05 08:55:22;;;;;;;40.97;26.90;;;;;;;11.82;37.90;102010.50;5252271;28;20060;-72
2022/03/05 08:57:53;;;;;;;42.03;27.67;;;;;;;10.86;39.36;102024.28;5256130;28;20037;-73
2022/03/05 09:00:25;;;;;;;42.53;28.07;;;;;;;10.12;40.82;102017.63;5271998;28;20033;-72
2022/03/05 09:02:56;;;;;;;44.63;28.97;;;;;;;10.80;39.68;102008.84;5258845;28;20033;-74
2022/03/05 09:05:27;;;;;;;41.03;26.30;;;;;;;12.15;37.98;102019.50;5256888;28;20105;-72
2022/03/05 09:07:58;;;;;;;40.73;27.20;;;;;;;12.32;36.93;102021.31;5249588;28;20025;-73
2022/03/05 09:10:30;;;;;;;46.00;29.17;;;;;;;12.79;36.14;101997.19;5250391;28;20108;-72
2022/03/05 09:13:01;;;;;;;39.27;26.80;;;;;;;14.22;34.58;102004.53;5253974;28;20021;-72
2022/03/05 09:15:33;;;;;;;43.00;28.13;;;;;;;13.86;33.58;102011.78;5245261;28;20150;-72
2022/03/05 09:18:05;;;;;;;40.33;28.23;;;;;;;15.11;32.88;102011.75;5243540;28;20029;-72
2022/03/05 09:20:36;;;;;;;40.43;27.50;;;;;;;15.96;31.46;102003.00;5244748;28;20028;-72
2022/03/05 09:23:08;;;;;;;38.73;28.93;;;;;;;16.01;30.58;102009.78;5246252;28;20133;-72
2022/03/05 09:25:40;;;;;;;40.30;25.93;;;;;;;17.45;28.33;102003.75;5248124;28;20397;-72
2022/03/05 09:28:11;;;;;;;38.30;26.80;;;;;;;17.98;27.82;101992.03;5245754;28;20029;-73
2022/03/05 09:30:42;;;;;;;39.07;27.30;;;;;;;17.57;27.65;101999.38;5242022;28;20016;-72
2022/03/05 09:33:14;;;;;;;40.13;27.70;;;;;;;17.64;26.50;101998.00;5242023;28;20084;-72
2022/03/05 09:35:45;;;;;;;38.73;28.73;;;;;;;18.55;26.67;101993.25;5249800;28;20108;-72
2022/03/05 09:38:17;;;;;;;40.10;28.27;;;;;;;18.81;25.22;101988.59;5238360;28;20029;-73
2022/03/05 09:40:49;;;;;;;36.27;27.13;;;;;;;19.00;25.19;101979.19;5249462;28;20082;-73
2022/03/05 09:43:20;;;;;;;38.77;27.90;;;;;;;18.68;25.21;101991.34;5257023;28;20041;-73
2022/03/05 09:45:52;;;;;;;38.50;26.70;;;;;;;19.32;24.32;101990.94;5250147;28;20025;-74
2022/03/05 09:48:26;;;;;;;36.17;26.80;;;;;;;19.32;25.04;101998.91;5240661;28;20075;-83
2022/03/05 09:50:58;;;;;;;37.73;27.37;;;;;;;19.85;24.46;101976.09;5249939;28;20025;-73
2022/03/05 09:53:31;;;;;;;40.67;26.87;;;;;;;19.30;24.13;101996.38;5254282;28;20112;-73
2022/03/05 09:56:02;;;;;;;33.77;26.23;;;;;;;20.26;23.48;101994.09;5241601;28;20029;-74
2022/03/05 09:58:34;;;;;;;37.07;27.87;;;;;;;21.00;23.33;101983.50;5230736;28;20037;-73
2022/03/05 10:01:05;;;;;;;32.08;24.85;;;;;;;20.33;22.57;101989.97;5231525;28;20035;-73
2022/03/05 10:03:43;;;;;;;34.00;26.42;;;;;;;22.45;22.52;101983.16;5231197;28;20523;-73
2022/03/05 10:06:20;;;;;;;33.70;25.95;;;;;;;22.18;21.66;101990.06;5244129;28;20090;-73
2022/03/05 10:08:51;;;;;;;36.40;25.00;;;;;;;20.65;21.27;101996.16;5264497;28;20021;-73
2022/03/05 10:11:24;;;;;;;34.83;27.40;;;;;;;20.20;21.55;101995.44;5263936;28;20076;-73
2022/03/05 10:13:56;;;;;;;33.72;25.20;;;;;;;20.91;21.13;101990.41;5264863;28;20471;-73
2022/03/05 10:16:33;;;;;;;34.90;25.63;;;;;;;22.59;20.98;101984.53;5267463;28;20040;-73
2022/03/05 10:19:21;;;;;;;32.78;25.67;;;;;;;22.77;22.59;101987.31;5270360;28;20704;-73
2022/03/05 10:21:56;;;;;;;35.58;26.48;;;;;;;23.31;20.63;101988.50;5262541;28;20029;-73
2022/03/05 10:24:32;;;;;;;33.72;26.63;;;;;;;22.10;21.26;101988.09;5256221;28;20040;-73
2022/03/05 10:27:06;;;;;;;34.33;26.80;;;;;;;22.26;20.45;101984.00;5260349;28;20032;-73
2022/03/05 10:29:39;;;;;;;30.63;25.20;;;;;;;21.64;21.01;101978.78;5265000;28;20023;-73
2022/03/05 10:32:15;;;;;;;35.75;27.60;;;;;;;21.37;21.10;101990.06;5261546;28;20411;-73
2022/03/05 10:34:52;;;;;;;33.38;26.00;;;;;;;20.97;21.27;101987.28;5262503;28;20058;-73
2022/03/05 10:37:23;;;;;;;33.80;25.08;;;;;;;20.37;20.77;101983.38;5264525;28;20437;-71
2022/03/05 10:39:55;;;;;;;32.58;25.90;;;;;;;18.54;22.56;101981.78;5274331;28;20028;-72
2022/03/05 10:42:27;;;;;;;35.83;26.02;;;;;;;19.47;22.30;101988.88;5268656;28;20032;-72
2022/03/05 10:45:04;;;;;;;34.08;27.02;;;;;;;19.18;23.26;101978.75;5257188;28;20025;-73
2022/03/05 10:47:40;;;;;;;37.83;27.30;;;;;;;17.73;24.52;101982.38;5254361;28;20040;-73
2022/03/05 10:50:14;;;;;;;39.90;27.53;;;;;;;16.27;25.69;101989.59;5265416;28;20032;-72
2022/03/05 10:52:48;;;;;;;34.00;25.48;;;;;;;15.62;26.77;101993.72;5269666;28;20913;-72
2022/03/05 10:55:25;;;;;;;32.70;25.48;;;;;;;16.12;26.69;101988.81;5260141;28;20032;-72
2022/03/05 10:58:03;;;;;;;35.37;26.93;;;;;;;15.59;26.88;102000.03;5262592;28;20031;-73
2022/03/05 11:00:34;;;;;;;34.23;25.23;;;;;;;15.21;27.25;101991.78;5260531;28;20487;-72
2022/03/05 11:03:06;;;;;;;35.83;26.27;;;;;;;14.93;27.57;101993.47;5263091;28;20039;-77
2022/03/05 11:05:38;;;;;;;36.70;26.50;;;;;;;14.70;27.90;101990.38;5258393;28;20130;-76
2022/03/05 11:08:09;;;;;;;35.40;25.83;;;;;;;14.44;28.81;101984.84;5239980;28;20112;-75
2022/03/05 11:10:41;;;;;;;33.67;24.37;;;;;;;15.40;27.58;101995.91;5260555;28;20110;-75
2022/03/05 11:13:12;;;;;;;34.87;26.17;;;;;;;15.73;28.03;101997.38;5254895;28;20120;-76
2022/03/05 11:15:45;;;;;;;34.97;25.70;;;;;;;14.92;28.74;101990.91;5253452;28;20029;-75
2022/03/05 11:18:16;;;;;;;42.37;27.97;;;;;;;14.44;30.20;101987.50;5271765;28;20438;-74
2022/03/05 11:20:49;;;;;;;42.83;28.43;;;;;;;14.27;30.80;101989.31;5271700;28;20020;-71
2022/03/05 11:23:21;;;;;;;46.20;29.27;;;;;;;14.15;31.28;101992.66;5264416;28;20120;-70
2022/03/05 11:25:53;;;;;;;39.10;27.53;;;;;;;14.42;31.73;101991.16;5258593;28;20649;-73
2022/03/05 11:28:34;;;;;;;41.57;28.97;;;;;;;14.54;31.15;101990.44;5243693;28;20021;-72
2022/03/05 11:31:15;;;;;;;39.77;27.53;;;;;;;13.70;30.68;101988.06;5261906;28;20027;-73
2022/03/05 11:33:47;;;;;;;40.50;28.53;;;;;;;13.71;31.66;101983.66;5272280;28;20034;-72
2022/03/05 11:36:28;;;;;;;41.23;27.13;;;;;;;14.33;29.68;101974.94;5271483;28;20037;-73
2022/03/05 11:39:27;;;;;;;38.90;26.73;;;;;;;14.17;29.91;101977.63;5254885;28;20021;-76